sensor_id;sensor_type;location;lat;lon;timestamp;P1;durP1;ratioP1;P2;durP2;ratioP2
66256;SDS011;53049;43.446;3.698;2022-10-28T00:00:48;33.13;;;13.27;;
66256;SDS011;53049;43.446;3.698;2022-10-28T00:03:14;27.30;;;13.20;;
66256;SDS011;53049;43.446;3.698;2022-10-28T00:05:41;28.10;;;12.40;;
66256;SDS011;53049;43.446;3.698;2022-10-28T00:08:07;28.75;;;12.60;;
66256;SDS011;53049;43.446;3.698;2022-10-28T00:10:33;25.95;;;11.63;;
66256;SDS011;53049;43.446;3.698;2022-10-28T00:12:58;27.23;;;12.20;;
66256;SDS011;53049;43.446;3.698;2022-10-28T00:15:24;28.23;;;11.63;;
66256;SDS011;53049;43.446;3.698;2022-10-28T00:17:50;23.33;;;11.50;;
66256;SDS011;53049;43.446;3.698;2022-10-28T00:20:16;25.38;;;11.25;;
66256;SDS011;53049;43.446;3.698;2022-10-28T00:22:42;29.83;;;11.50;;
66256;SDS011;53049;43.446;3.698;2022-10-28T00:25:07;30.25;;;12.32;;
66256;SDS011;53049;43.446;3.698;2022-10-28T00:27:34;28.98;;;12.25;;
66256;SDS011;53049;43.446;3.698;2022-10-28T00:29:59;31.45;;;11.13;;
66256;SDS011;53049;43.446;3.698;2022-10-28T00:32:29;29.08;;;12.50;;
66256;SDS011;53049;43.446;3.698;2022-10-28T00:34:55;21.50;;;11.55;;
66256;SDS011;53049;43.446;3.698;2022-10-28T00:37:22;34.95;;;13.20;;
66256;SDS011;53049;43.446;3.698;2022-10-28T00:39:48;27.92;;;11.70;;
66256;SDS011;53049;43.446;3.698;2022-10-28T00:42:18;26.20;;;12.05;;
66256;SDS011;53049;43.446;3.698;2022-10-28T00:55:10;24.27;;;11.18;;
66256;SDS011;53049;43.446;3.698;2022-10-28T00:57:39;29.88;;;11.48;;
66256;SDS011;53049;43.446;3.698;2022-10-28T01:00:06;25.95;;;11.88;;
66256;SDS011;53049;43.446;3.698;2022-10-28T01:02:33;24.55;;;11.07;;
66256;SDS011;53049;43.446;3.698;2022-10-28T01:05:06;28.58;;;11.80;;
66256;SDS011;53049;43.446;3.698;2022-10-28T01:07:32;24.05;;;11.95;;
66256;SDS011;53049;43.446;3.698;2022-10-28T01:09:57;27.20;;;11.95;;
66256;SDS011;53049;43.446;3.698;2022-10-28T01:23:21;26.65;;;10.95;;
66256;SDS011;53049;43.446;3.698;2022-10-28T01:31:32;29.58;;;11.90;;
66256;SDS011;53049;43.446;3.698;2022-10-28T01:34:25;27.67;;;12.65;;
66256;SDS011;53049;43.446;3.698;2022-10-28T01:47:25;27.58;;;12.15;;
66256;SDS011;53049;43.446;3.698;2022-10-28T01:50:17;28.85;;;12.48;;
66256;SDS011;53049;43.446;3.698;2022-10-28T01:52:50;26.88;;;12.70;;
66256;SDS011;53049;43.446;3.698;2022-10-28T01:55:22;29.25;;;12.50;;
66256;SDS011;53049;43.446;3.698;2022-10-28T01:57:52;30.75;;;13.02;;
66256;SDS011;53049;43.446;3.698;2022-10-28T02:00:21;30.17;;;12.73;;
66256;SDS011;53049;43.446;3.698;2022-10-28T02:02:47;33.42;;;12.48;;
66256;SDS011;53049;43.446;3.698;2022-10-28T02:08:05;25.08;;;11.88;;
66256;SDS011;53049;43.446;3.698;2022-10-28T02:13:14;29.33;;;12.50;;
66256;SDS011;53049;43.446;3.698;2022-10-28T02:15:48;27.27;;;11.73;;
66256;SDS011;53049;43.446;3.698;2022-10-28T02:18:46;25.10;;;11.05;;
66256;SDS011;53049;43.446;3.698;2022-10-28T02:24:18;21.40;;;12.45;;
66256;SDS011;53049;43.446;3.698;2022-10-28T02:27:00;30.77;;;12.63;;
66256;SDS011;53049;43.446;3.698;2022-10-28T02:29:40;29.98;;;12.30;;
66256;SDS011;53049;43.446;3.698;2022-10-28T02:32:15;32.15;;;12.80;;
66256;SDS011;53049;43.446;3.698;2022-10-28T02:34:45;29.83;;;12.75;;
66256;SDS011;53049;43.446;3.698;2022-10-28T02:37:16;32.05;;;12.80;;
66256;SDS011;53049;43.446;3.698;2022-10-28T02:39:45;28.27;;;11.68;;
66256;SDS011;53049;43.446;3.698;2022-10-28T02:42:17;29.73;;;12.82;;
66256;SDS011;53049;43.446;3.698;2022-10-28T02:44:57;28.15;;;11.35;;
66256;SDS011;53049;43.446;3.698;2022-10-28T02:47:28;26.58;;;11.75;;
66256;SDS011;53049;43.446;3.698;2022-10-28T02:49:59;27.48;;;12.63;;
66256;SDS011;53049;43.446;3.698;2022-10-28T02:52:28;23.88;;;11.93;;
66256;SDS011;53049;43.446;3.698;2022-10-28T02:54:57;32.17;;;12.48;;
66256;SDS011;53049;43.446;3.698;2022-10-28T02:57:25;33.33;;;13.55;;
66256;SDS011;53049;43.446;3.698;2022-10-28T02:59:57;28.65;;;13.05;;
66256;SDS011;53049;43.446;3.698;2022-10-28T03:02:24;31.80;;;12.27;;
66256;SDS011;53049;43.446;3.698;2022-10-28T03:04:51;27.40;;;12.23;;
66256;SDS011;53049;43.446;3.698;2022-10-28T03:07:17;29.80;;;13.32;;
66256;SDS011;53049;43.446;3.698;2022-10-28T03:09:43;29.90;;;12.73;;
66256;SDS011;53049;43.446;3.698;2022-10-28T03:12:08;26.55;;;12.63;;
66256;SDS011;53049;43.446;3.698;2022-10-28T03:14:34;30.65;;;13.30;;
66256;SDS011;53049;43.446;3.698;2022-10-28T03:17:00;28.13;;;12.32;;
66256;SDS011;53049;43.446;3.698;2022-10-28T03:19:26;32.15;;;13.43;;
66256;SDS011;53049;43.446;3.698;2022-10-28T03:21:51;25.85;;;12.52;;
66256;SDS011;53049;43.446;3.698;2022-10-28T03:24:17;26.73;;;12.63;;
66256;SDS011;53049;43.446;3.698;2022-10-28T03:26:43;24.77;;;12.75;;
66256;SDS011;53049;43.446;3.698;2022-10-28T03:29:08;29.00;;;13.13;;
66256;SDS011;53049;43.446;3.698;2022-10-28T03:31:34;28.60;;;13.20;;
66256;SDS011;53049;43.446;3.698;2022-10-28T03:33:59;31.10;;;12.35;;
66256;SDS011;53049;43.446;3.698;2022-10-28T03:36:25;33.78;;;13.23;;
66256;SDS011;53049;43.446;3.698;2022-10-28T03:38:51;32.13;;;13.65;;
66256;SDS011;53049;43.446;3.698;2022-10-28T03:41:16;28.52;;;13.25;;
66256;SDS011;53049;43.446;3.698;2022-10-28T03:43:42;30.35;;;12.07;;
66256;SDS011;53049;43.446;3.698;2022-10-28T03:46:08;27.00;;;12.70;;
66256;SDS011;53049;43.446;3.698;2022-10-28T03:48:33;33.83;;;12.98;;
66256;SDS011;53049;43.446;3.698;2022-10-28T03:50:59;25.88;;;12.48;;
66256;SDS011;53049;43.446;3.698;2022-10-28T03:53:25;25.05;;;13.18;;
66256;SDS011;53049;43.446;3.698;2022-10-28T03:55:54;30.75;;;12.75;;
66256;SDS011;53049;43.446;3.698;2022-10-28T03:58:21;27.70;;;12.48;;
66256;SDS011;53049;43.446;3.698;2022-10-28T04:00:48;27.17;;;13.13;;
66256;SDS011;53049;43.446;3.698;2022-10-28T04:03:17;30.58;;;13.02;;
66256;SDS011;53049;43.446;3.698;2022-10-28T04:05:44;26.25;;;13.43;;
66256;SDS011;53049;43.446;3.698;2022-10-28T04:08:12;28.45;;;13.27;;
66256;SDS011;53049;43.446;3.698;2022-10-28T04:10:38;29.50;;;14.15;;
66256;SDS011;53049;43.446;3.698;2022-10-28T04:13:04;27.48;;;12.80;;
66256;SDS011;53049;43.446;3.698;2022-10-28T04:15:31;26.80;;;12.98;;
66256;SDS011;53049;43.446;3.698;2022-10-28T04:17:57;27.48;;;13.30;;
66256;SDS011;53049;43.446;3.698;2022-10-28T04:20:23;24.33;;;13.13;;
66256;SDS011;53049;43.446;3.698;2022-10-28T04:22:49;29.23;;;14.43;;
66256;SDS011;53049;43.446;3.698;2022-10-28T04:25:15;32.55;;;13.73;;
66256;SDS011;53049;43.446;3.698;2022-10-28T04:27:44;31.80;;;13.88;;
66256;SDS011;53049;43.446;3.698;2022-10-28T04:30:10;26.92;;;13.35;;
66256;SDS011;53049;43.446;3.698;2022-10-28T04:32:38;42.00;;;15.00;;
66256;SDS011;53049;43.446;3.698;2022-10-28T04:35:05;28.17;;;13.05;;
66256;SDS011;53049;43.446;3.698;2022-10-28T04:37:31;28.88;;;14.13;;
66256;SDS011;53049;43.446;3.698;2022-10-28T04:39:57;34.40;;;13.90;;
66256;SDS011;53049;43.446;3.698;2022-10-28T04:42:22;27.58;;;13.15;;
66256;SDS011;53049;43.446;3.698;2022-10-28T04:44:48;26.33;;;12.60;;
66256;SDS011;53049;43.446;3.698;2022-10-28T04:47:15;28.23;;;13.55;;
66256;SDS011;53049;43.446;3.698;2022-10-28T04:49:41;31.20;;;12.60;;
66256;SDS011;53049;43.446;3.698;2022-10-28T04:52:06;30.13;;;13.55;;
66256;SDS011;53049;43.446;3.698;2022-10-28T04:54:32;31.05;;;13.68;;
66256;SDS011;53049;43.446;3.698;2022-10-28T04:56:58;31.13;;;13.07;;
66256;SDS011;53049;43.446;3.698;2022-10-28T04:59:24;26.30;;;13.40;;
66256;SDS011;53049;43.446;3.698;2022-10-28T05:01:49;30.80;;;14.70;;
66256;SDS011;53049;43.446;3.698;2022-10-28T05:04:15;27.65;;;13.35;;
66256;SDS011;53049;43.446;3.698;2022-10-28T05:06:41;30.55;;;13.90;;
66256;SDS011;53049;43.446;3.698;2022-10-28T05:09:07;25.30;;;13.10;;
66256;SDS011;53049;43.446;3.698;2022-10-28T05:11:32;32.17;;;13.40;;
66256;SDS011;53049;43.446;3.698;2022-10-28T05:13:58;27.90;;;13.68;;
66256;SDS011;53049;43.446;3.698;2022-10-28T05:16:23;26.73;;;12.63;;
66256;SDS011;53049;43.446;3.698;2022-10-28T05:18:49;28.27;;;13.27;;
66256;SDS011;53049;43.446;3.698;2022-10-28T05:21:15;29.42;;;13.38;;
66256;SDS011;53049;43.446;3.698;2022-10-28T05:23:41;23.85;;;12.90;;
66256;SDS011;53049;43.446;3.698;2022-10-28T05:26:06;25.13;;;12.75;;
66256;SDS011;53049;43.446;3.698;2022-10-28T05:28:32;26.77;;;12.80;;
66256;SDS011;53049;43.446;3.698;2022-10-28T05:30:58;25.92;;;11.88;;
66256;SDS011;53049;43.446;3.698;2022-10-28T05:33:23;30.08;;;13.52;;
66256;SDS011;53049;43.446;3.698;2022-10-28T05:35:49;28.60;;;13.35;;
66256;SDS011;53049;43.446;3.698;2022-10-28T05:38:15;28.05;;;13.13;;
66256;SDS011;53049;43.446;3.698;2022-10-28T05:40:41;28.92;;;12.85;;
66256;SDS011;53049;43.446;3.698;2022-10-28T05:43:08;28.50;;;13.65;;
66256;SDS011;53049;43.446;3.698;2022-10-28T05:45:34;28.95;;;13.80;;
66256;SDS011;53049;43.446;3.698;2022-10-28T05:48:00;37.28;;;14.35;;
66256;SDS011;53049;43.446;3.698;2022-10-28T05:50:26;27.98;;;13.23;;
66256;SDS011;53049;43.446;3.698;2022-10-28T05:52:53;32.50;;;14.13;;
66256;SDS011;53049;43.446;3.698;2022-10-28T05:55:21;25.13;;;13.73;;
66256;SDS011;53049;43.446;3.698;2022-10-28T05:57:48;26.35;;;13.38;;
66256;SDS011;53049;43.446;3.698;2022-10-28T06:00:15;32.88;;;14.73;;
66256;SDS011;53049;43.446;3.698;2022-10-28T06:02:42;39.90;;;15.23;;
66256;SDS011;53049;43.446;3.698;2022-10-28T06:05:08;29.23;;;13.82;;
66256;SDS011;53049;43.446;3.698;2022-10-28T06:07:35;32.38;;;14.13;;
66256;SDS011;53049;43.446;3.698;2022-10-28T06:10:01;33.45;;;15.02;;
66256;SDS011;53049;43.446;3.698;2022-10-28T06:12:28;27.45;;;14.00;;
66256;SDS011;53049;43.446;3.698;2022-10-28T06:14:54;33.08;;;15.27;;
66256;SDS011;53049;43.446;3.698;2022-10-28T06:17:19;36.92;;;14.60;;
66256;SDS011;53049;43.446;3.698;2022-10-28T06:19:45;30.58;;;13.50;;
66256;SDS011;53049;43.446;3.698;2022-10-28T06:22:11;31.27;;;13.75;;
66256;SDS011;53049;43.446;3.698;2022-10-28T06:24:37;23.95;;;13.85;;
66256;SDS011;53049;43.446;3.698;2022-10-28T06:27:02;32.33;;;14.85;;
66256;SDS011;53049;43.446;3.698;2022-10-28T06:29:28;27.00;;;14.10;;
66256;SDS011;53049;43.446;3.698;2022-10-28T06:31:56;27.25;;;14.63;;
66256;SDS011;53049;43.446;3.698;2022-10-28T06:34:22;30.17;;;14.75;;
66256;SDS011;53049;43.446;3.698;2022-10-28T06:36:47;28.50;;;13.90;;
66256;SDS011;53049;43.446;3.698;2022-10-28T06:39:13;25.48;;;13.45;;
66256;SDS011;53049;43.446;3.698;2022-10-28T06:41:39;27.25;;;14.98;;
66256;SDS011;53049;43.446;3.698;2022-10-28T06:44:05;36.10;;;15.57;;
66256;SDS011;53049;43.446;3.698;2022-10-28T06:46:30;28.63;;;14.95;;
66256;SDS011;53049;43.446;3.698;2022-10-28T06:48:56;38.72;;;17.30;;
66256;SDS011;53049;43.446;3.698;2022-10-28T06:51:22;36.10;;;17.17;;
66256;SDS011;53049;43.446;3.698;2022-10-28T06:53:48;33.92;;;16.20;;
66256;SDS011;53049;43.446;3.698;2022-10-28T06:56:15;33.05;;;15.25;;
66256;SDS011;53049;43.446;3.698;2022-10-28T06:58:41;29.15;;;16.27;;
66256;SDS011;53049;43.446;3.698;2022-10-28T07:01:07;32.03;;;15.77;;
66256;SDS011;53049;43.446;3.698;2022-10-28T07:03:32;32.25;;;15.63;;
66256;SDS011;53049;43.446;3.698;2022-10-28T07:05:58;32.38;;;15.25;;
66256;SDS011;53049;43.446;3.698;2022-10-28T07:08:27;29.02;;;15.27;;
66256;SDS011;53049;43.446;3.698;2022-10-28T07:10:57;30.63;;;14.57;;
66256;SDS011;53049;43.446;3.698;2022-10-28T07:13:24;34.30;;;15.07;;
66256;SDS011;53049;43.446;3.698;2022-10-28T07:15:51;28.45;;;15.38;;
66256;SDS011;53049;43.446;3.698;2022-10-28T07:18:22;34.67;;;16.35;;
66256;SDS011;53049;43.446;3.698;2022-10-28T07:20:48;36.35;;;16.27;;
66256;SDS011;53049;43.446;3.698;2022-10-28T07:23:14;27.10;;;14.65;;
66256;SDS011;53049;43.446;3.698;2022-10-28T07:25:40;34.30;;;16.48;;
66256;SDS011;53049;43.446;3.698;2022-10-28T07:28:06;32.95;;;14.88;;
66256;SDS011;53049;43.446;3.698;2022-10-28T07:30:32;33.72;;;14.82;;
66256;SDS011;53049;43.446;3.698;2022-10-28T07:32:58;29.85;;;15.23;;
66256;SDS011;53049;43.446;3.698;2022-10-28T07:35:28;30.88;;;15.50;;
66256;SDS011;53049;43.446;3.698;2022-10-28T07:37:54;32.97;;;14.30;;
66256;SDS011;53049;43.446;3.698;2022-10-28T07:40:21;34.83;;;14.25;;
66256;SDS011;53049;43.446;3.698;2022-10-28T07:42:48;28.65;;;13.63;;
66256;SDS011;53049;43.446;3.698;2022-10-28T07:45:14;32.78;;;13.95;;
66256;SDS011;53049;43.446;3.698;2022-10-28T07:47:40;31.95;;;14.90;;
66256;SDS011;53049;43.446;3.698;2022-10-28T07:50:06;29.38;;;13.35;;
66256;SDS011;53049;43.446;3.698;2022-10-28T07:52:33;31.90;;;13.73;;
66256;SDS011;53049;43.446;3.698;2022-10-28T07:54:59;31.33;;;13.48;;
66256;SDS011;53049;43.446;3.698;2022-10-28T07:57:26;25.58;;;13.65;;
66256;SDS011;53049;43.446;3.698;2022-10-28T07:59:51;27.80;;;14.13;;
66256;SDS011;53049;43.446;3.698;2022-10-28T08:02:19;30.15;;;13.23;;
66256;SDS011;53049;43.446;3.698;2022-10-28T08:04:46;27.35;;;13.13;;
66256;SDS011;53049;43.446;3.698;2022-10-28T08:07:12;29.80;;;13.43;;
66256;SDS011;53049;43.446;3.698;2022-10-28T08:09:39;33.25;;;13.30;;
66256;SDS011;53049;43.446;3.698;2022-10-28T08:12:05;22.42;;;11.38;;
66256;SDS011;53049;43.446;3.698;2022-10-28T08:14:32;30.80;;;12.40;;
66256;SDS011;53049;43.446;3.698;2022-10-28T08:16:57;29.70;;;12.93;;
66256;SDS011;53049;43.446;3.698;2022-10-28T08:19:23;30.98;;;12.23;;
66256;SDS011;53049;43.446;3.698;2022-10-28T08:21:49;31.02;;;12.40;;
66256;SDS011;53049;43.446;3.698;2022-10-28T08:24:15;24.27;;;12.32;;
66256;SDS011;53049;43.446;3.698;2022-10-28T08:26:40;27.58;;;12.35;;
66256;SDS011;53049;43.446;3.698;2022-10-28T08:29:08;27.65;;;11.48;;
66256;SDS011;53049;43.446;3.698;2022-10-28T08:31:34;27.15;;;12.80;;
66256;SDS011;53049;43.446;3.698;2022-10-28T08:34:00;22.48;;;12.10;;
66256;SDS011;53049;43.446;3.698;2022-10-28T08:36:25;23.50;;;12.00;;
66256;SDS011;53049;43.446;3.698;2022-10-28T08:38:52;30.30;;;11.85;;
66256;SDS011;53049;43.446;3.698;2022-10-28T08:49:48;27.77;;;12.20;;
66256;SDS011;53049;43.446;3.698;2022-10-28T08:55:15;23.98;;;11.23;;
66256;SDS011;53049;43.446;3.698;2022-10-28T08:57:48;24.40;;;11.25;;
66256;SDS011;53049;43.446;3.698;2022-10-28T09:00:28;24.30;;;11.35;;
66256;SDS011;53049;43.446;3.698;2022-10-28T09:05:41;20.52;;;11.43;;
66256;SDS011;53049;43.446;3.698;2022-10-28T09:08:19;22.42;;;11.13;;
66256;SDS011;53049;43.446;3.698;2022-10-28T09:16:44;31.30;;;11.80;;
66256;SDS011;53049;43.446;3.698;2022-10-28T09:22:00;24.00;;;10.52;;
66256;SDS011;53049;43.446;3.698;2022-10-28T09:24:43;25.10;;;11.23;;
66256;SDS011;53049;43.446;3.698;2022-10-28T09:28:07;26.10;;;11.02;;
66256;SDS011;53049;43.446;3.698;2022-10-28T09:33:16;28.40;;;10.60;;
66256;SDS011;53049;43.446;3.698;2022-10-28T09:35:52;27.55;;;10.60;;
66256;SDS011;53049;43.446;3.698;2022-10-28T09:38:35;22.25;;;10.25;;
66256;SDS011;53049;43.446;3.698;2022-10-28T09:41:21;25.93;;;11.13;;
66256;SDS011;53049;43.446;3.698;2022-10-28T09:43:55;24.35;;;9.90;;
66256;SDS011;53049;43.446;3.698;2022-10-28T09:46:31;26.02;;;9.80;;
66256;SDS011;53049;43.446;3.698;2022-10-28T09:48:58;24.13;;;10.23;;
66256;SDS011;53049;43.446;3.698;2022-10-28T09:51:43;35.63;;;10.98;;
66256;SDS011;53049;43.446;3.698;2022-10-28T09:54:11;24.15;;;10.23;;
66256;SDS011;53049;43.446;3.698;2022-10-28T09:56:37;20.23;;;9.18;;
66256;SDS011;53049;43.446;3.698;2022-10-28T09:59:04;24.13;;;9.15;;
66256;SDS011;53049;43.446;3.698;2022-10-28T10:01:32;27.27;;;10.23;;
66256;SDS011;53049;43.446;3.698;2022-10-28T10:03:59;23.00;;;9.82;;
66256;SDS011;53049;43.446;3.698;2022-10-28T10:06:31;21.45;;;9.13;;
66256;SDS011;53049;43.446;3.698;2022-10-28T10:09:00;19.50;;;8.40;;
66256;SDS011;53049;43.446;3.698;2022-10-28T10:11:32;20.58;;;9.30;;
66256;SDS011;53049;43.446;3.698;2022-10-28T10:19:05;25.67;;;9.68;;
66256;SDS011;53049;43.446;3.698;2022-10-28T10:21:39;23.92;;;8.73;;
66256;SDS011;53049;43.446;3.698;2022-10-28T10:29:33;20.25;;;8.60;;
66256;SDS011;53049;43.446;3.698;2022-10-28T10:32:03;22.77;;;8.60;;
66256;SDS011;53049;43.446;3.698;2022-10-28T10:34:41;25.85;;;9.82;;
66256;SDS011;53049;43.446;3.698;2022-10-28T10:37:17;26.55;;;9.77;;
66256;SDS011;53049;43.446;3.698;2022-10-28T10:42:23;18.33;;;8.63;;
66256;SDS011;53049;43.446;3.698;2022-10-28T10:44:55;19.25;;;8.85;;
66256;SDS011;53049;43.446;3.698;2022-10-28T10:47:24;16.92;;;8.40;;
66256;SDS011;53049;43.446;3.698;2022-10-28T10:49:50;19.27;;;8.63;;
66256;SDS011;53049;43.446;3.698;2022-10-28T10:52:20;23.52;;;8.73;;
66256;SDS011;53049;43.446;3.698;2022-10-28T10:54:59;22.60;;;9.07;;
66256;SDS011;53049;43.446;3.698;2022-10-28T10:57:30;19.98;;;8.88;;
66256;SDS011;53049;43.446;3.698;2022-10-28T10:59:57;31.77;;;9.75;;
66256;SDS011;53049;43.446;3.698;2022-10-28T11:02:27;18.55;;;8.90;;
66256;SDS011;53049;43.446;3.698;2022-10-28T11:04:59;20.55;;;8.65;;
66256;SDS011;53049;43.446;3.698;2022-10-28T11:07:27;17.30;;;7.90;;
66256;SDS011;53049;43.446;3.698;2022-10-28T11:09:56;18.52;;;7.78;;
66256;SDS011;53049;43.446;3.698;2022-10-28T11:14:54;19.40;;;8.40;;
66256;SDS011;53049;43.446;3.698;2022-10-28T11:17:23;23.80;;;8.63;;
66256;SDS011;53049;43.446;3.698;2022-10-28T11:19:52;19.80;;;8.20;;
66256;SDS011;53049;43.446;3.698;2022-10-28T11:22:28;25.27;;;8.88;;
66256;SDS011;53049;43.446;3.698;2022-10-28T11:25:19;20.17;;;8.43;;
66256;SDS011;53049;43.446;3.698;2022-10-28T11:33:51;20.10;;;8.48;;
66256;SDS011;53049;43.446;3.698;2022-10-28T11:36:36;24.65;;;9.40;;
66256;SDS011;53049;43.446;3.698;2022-10-28T11:44:36;23.25;;;9.25;;
66256;SDS011;53049;43.446;3.698;2022-10-28T12:00:39;23.15;;;8.63;;
66256;SDS011;53049;43.446;3.698;2022-10-28T12:03:32;23.48;;;8.25;;
66256;SDS011;53049;43.446;3.698;2022-10-28T12:19:34;19.73;;;8.88;;
66256;SDS011;53049;43.446;3.698;2022-10-28T12:22:13;20.08;;;7.82;;
66256;SDS011;53049;43.446;3.698;2022-10-28T12:24:47;18.73;;;7.70;;
66256;SDS011;53049;43.446;3.698;2022-10-28T12:29:48;20.85;;;7.50;;
66256;SDS011;53049;43.446;3.698;2022-10-28T12:32:23;24.30;;;8.13;;
66256;SDS011;53049;43.446;3.698;2022-10-28T12:43:13;25.38;;;8.38;;
66256;SDS011;53049;43.446;3.698;2022-10-28T12:45:45;21.52;;;8.30;;
66256;SDS011;53049;43.446;3.698;2022-10-28T12:48:15;23.45;;;7.85;;
66256;SDS011;53049;43.446;3.698;2022-10-28T12:50:52;21.42;;;7.55;;
66256;SDS011;53049;43.446;3.698;2022-10-28T12:55:59;21.85;;;7.68;;
66256;SDS011;53049;43.446;3.698;2022-10-28T12:58:37;21.17;;;7.93;;
66256;SDS011;53049;43.446;3.698;2022-10-28T13:01:18;20.25;;;8.13;;
66256;SDS011;53049;43.446;3.698;2022-10-28T13:03:48;18.75;;;8.40;;
66256;SDS011;53049;43.446;3.698;2022-10-28T13:11:55;24.92;;;7.80;;
66256;SDS011;53049;43.446;3.698;2022-10-28T13:17:36;21.23;;;8.52;;
66256;SDS011;53049;43.446;3.698;2022-10-28T13:20:37;17.95;;;7.78;;
66256;SDS011;53049;43.446;3.698;2022-10-28T13:26:25;22.15;;;8.48;;
66256;SDS011;53049;43.446;3.698;2022-10-28T13:28:58;19.40;;;8.25;;
66256;SDS011;53049;43.446;3.698;2022-10-28T13:31:44;23.85;;;7.80;;
66256;SDS011;53049;43.446;3.698;2022-10-28T13:34:12;26.42;;;8.32;;
66256;SDS011;53049;43.446;3.698;2022-10-28T13:36:40;26.00;;;8.43;;
66256;SDS011;53049;43.446;3.698;2022-10-28T13:39:22;22.08;;;8.52;;
66256;SDS011;53049;43.446;3.698;2022-10-28T13:41:48;23.30;;;8.07;;
66256;SDS011;53049;43.446;3.698;2022-10-28T13:44:46;22.45;;;8.27;;
66256;SDS011;53049;43.446;3.698;2022-10-28T13:50:13;20.77;;;8.07;;
66256;SDS011;53049;43.446;3.698;2022-10-28T13:52:40;27.73;;;9.15;;
66256;SDS011;53049;43.446;3.698;2022-10-28T13:58:17;21.98;;;9.07;;
66256;SDS011;53049;43.446;3.698;2022-10-28T14:00:48;21.10;;;8.23;;
66256;SDS011;53049;43.446;3.698;2022-10-28T14:03:23;22.00;;;8.23;;
66256;SDS011;53049;43.446;3.698;2022-10-28T14:05:51;24.65;;;8.85;;
66256;SDS011;53049;43.446;3.698;2022-10-28T14:08:26;22.42;;;8.05;;
66256;SDS011;53049;43.446;3.698;2022-10-28T14:13:33;25.45;;;9.10;;
66256;SDS011;53049;43.446;3.698;2022-10-28T14:22:18;22.42;;;8.60;;
66256;SDS011;53049;43.446;3.698;2022-10-28T14:24:35;19.60;;;8.88;;
66256;SDS011;53049;43.446;3.698;2022-10-28T14:34:57;21.05;;;9.23;;
66256;SDS011;53049;43.446;3.698;2022-10-28T14:40:24;19.05;;;8.88;;
66256;SDS011;53049;43.446;3.698;2022-10-28T14:43:30;20.27;;;9.57;;
66256;SDS011;53049;43.446;3.698;2022-10-28T14:46:13;24.17;;;9.40;;
66256;SDS011;53049;43.446;3.698;2022-10-28T14:49:01;22.30;;;9.75;;
66256;SDS011;53049;43.446;3.698;2022-10-28T14:51:34;26.20;;;9.25;;
66256;SDS011;53049;43.446;3.698;2022-10-28T14:54:05;22.00;;;9.55;;
66256;SDS011;53049;43.446;3.698;2022-10-28T14:56:36;23.13;;;9.57;;
66256;SDS011;53049;43.446;3.698;2022-10-28T14:59:04;30.75;;;9.73;;
66256;SDS011;53049;43.446;3.698;2022-10-28T15:01:59;20.55;;;10.10;;
66256;SDS011;53049;43.446;3.698;2022-10-28T15:04:28;24.00;;;9.10;;
66256;SDS011;53049;43.446;3.698;2022-10-28T15:06:54;26.30;;;9.98;;
66256;SDS011;53049;43.446;3.698;2022-10-28T15:09:21;22.20;;;9.75;;
66256;SDS011;53049;43.446;3.698;2022-10-28T15:12:05;20.33;;;9.30;;
66256;SDS011;53049;43.446;3.698;2022-10-28T15:14:35;25.25;;;9.35;;
66256;SDS011;53049;43.446;3.698;2022-10-28T15:17:10;27.30;;;9.57;;
66256;SDS011;53049;43.446;3.698;2022-10-28T15:19:38;25.80;;;10.13;;
66256;SDS011;53049;43.446;3.698;2022-10-28T15:22:12;24.13;;;9.43;;
66256;SDS011;53049;43.446;3.698;2022-10-28T15:24:39;23.00;;;9.18;;
66256;SDS011;53049;43.446;3.698;2022-10-28T15:27:05;24.15;;;9.20;;
66256;SDS011;53049;43.446;3.698;2022-10-28T15:29:35;22.92;;;9.75;;
66256;SDS011;53049;43.446;3.698;2022-10-28T15:34:31;30.58;;;9.90;;
66256;SDS011;53049;43.446;3.698;2022-10-28T15:36:57;27.27;;;9.35;;
66256;SDS011;53049;43.446;3.698;2022-10-28T15:39:23;25.10;;;9.57;;
66256;SDS011;53049;43.446;3.698;2022-10-28T15:41:49;24.25;;;9.35;;
66256;SDS011;53049;43.446;3.698;2022-10-28T15:44:23;24.70;;;10.18;;
66256;SDS011;53049;43.446;3.698;2022-10-28T15:46:55;29.77;;;9.77;;
66256;SDS011;53049;43.446;3.698;2022-10-28T15:49:35;26.50;;;10.50;;
66256;SDS011;53049;43.446;3.698;2022-10-28T15:54:57;23.63;;;9.52;;
66256;SDS011;53049;43.446;3.698;2022-10-28T15:57:28;21.33;;;10.45;;
66256;SDS011;53049;43.446;3.698;2022-10-28T16:00:22;29.48;;;10.35;;
66256;SDS011;53049;43.446;3.698;2022-10-28T16:07:56;22.92;;;10.30;;
66256;SDS011;53049;43.446;3.698;2022-10-28T16:10:35;31.10;;;9.95;;
66256;SDS011;53049;43.446;3.698;2022-10-28T16:13:12;24.52;;;9.82;;
66256;SDS011;53049;43.446;3.698;2022-10-28T16:15:53;24.20;;;10.55;;
66256;SDS011;53049;43.446;3.698;2022-10-28T16:18:24;21.98;;;8.88;;
66256;SDS011;53049;43.446;3.698;2022-10-28T16:20:51;20.83;;;10.25;;
66256;SDS011;53049;43.446;3.698;2022-10-28T16:23:19;27.00;;;10.35;;
66256;SDS011;53049;43.446;3.698;2022-10-28T16:25:47;23.92;;;9.85;;
66256;SDS011;53049;43.446;3.698;2022-10-28T16:28:17;25.23;;;10.57;;
66256;SDS011;53049;43.446;3.698;2022-10-28T16:30:46;27.08;;;9.93;;
66256;SDS011;53049;43.446;3.698;2022-10-28T16:33:14;23.60;;;9.75;;
66256;SDS011;53049;43.446;3.698;2022-10-28T16:35:40;20.10;;;9.93;;
66256;SDS011;53049;43.446;3.698;2022-10-28T16:38:08;22.92;;;9.73;;
66256;SDS011;53049;43.446;3.698;2022-10-28T16:40:36;27.67;;;10.05;;
66256;SDS011;53049;43.446;3.698;2022-10-28T16:43:03;20.65;;;9.93;;
66256;SDS011;53049;43.446;3.698;2022-10-28T16:45:29;23.15;;;9.63;;
66256;SDS011;53049;43.446;3.698;2022-10-28T16:47:54;23.85;;;10.48;;
66256;SDS011;53049;43.446;3.698;2022-10-28T16:50:20;20.05;;;9.88;;
66256;SDS011;53049;43.446;3.698;2022-10-28T16:52:46;24.38;;;11.18;;
66256;SDS011;53049;43.446;3.698;2022-10-28T16:55:12;20.23;;;10.10;;
66256;SDS011;53049;43.446;3.698;2022-10-28T16:57:40;23.55;;;10.38;;
66256;SDS011;53049;43.446;3.698;2022-10-28T17:00:06;23.38;;;10.25;;
66256;SDS011;53049;43.446;3.698;2022-10-28T17:02:34;23.98;;;10.50;;
66256;SDS011;53049;43.446;3.698;2022-10-28T17:05:00;29.17;;;10.20;;
66256;SDS011;53049;43.446;3.698;2022-10-28T17:07:29;20.48;;;10.25;;
66256;SDS011;53049;43.446;3.698;2022-10-28T17:09:55;19.40;;;10.38;;
66256;SDS011;53049;43.446;3.698;2022-10-28T17:12:21;26.92;;;10.55;;
66256;SDS011;53049;43.446;3.698;2022-10-28T17:14:48;23.70;;;10.77;;
66256;SDS011;53049;43.446;3.698;2022-10-28T17:17:14;24.67;;;10.80;;
66256;SDS011;53049;43.446;3.698;2022-10-28T17:19:40;25.92;;;10.20;;
66256;SDS011;53049;43.446;3.698;2022-10-28T17:22:07;22.48;;;10.75;;
66256;SDS011;53049;43.446;3.698;2022-10-28T17:24:33;22.02;;;10.35;;
66256;SDS011;53049;43.446;3.698;2022-10-28T17:26:59;24.17;;;11.43;;
66256;SDS011;53049;43.446;3.698;2022-10-28T17:29:25;23.60;;;10.50;;
66256;SDS011;53049;43.446;3.698;2022-10-28T17:31:51;25.40;;;9.95;;
66256;SDS011;53049;43.446;3.698;2022-10-28T17:34:17;22.73;;;11.02;;
66256;SDS011;53049;43.446;3.698;2022-10-28T17:36:43;22.13;;;10.75;;
66256;SDS011;53049;43.446;3.698;2022-10-28T17:39:08;23.88;;;12.35;;
66256;SDS011;53049;43.446;3.698;2022-10-28T17:41:34;28.92;;;11.70;;
66256;SDS011;53049;43.446;3.698;2022-10-28T17:44:00;25.40;;;11.88;;
66256;SDS011;53049;43.446;3.698;2022-10-28T17:46:25;26.23;;;12.45;;